Decoded Metar for LFBU (ANGOULEME in FRANCE) (IATA:ANG) | Meteo·Mobile Aviation Weather
aviador You're here:

LFBU Decoded Metar

ANGOULEME in FRANCE
Report Time2019-03-22 14:30:00
UTC Time2019-03-22 15:03:14
Flight Rules vfr VFR
Wind230° at 03 kt
W.Decomp.*RWY 28: 2.0 kt HW 2.3 kt LCW
W.Rank230° ranks 17
Current wind is below 230° avg. (6.5)
Visibility9999 m
Phenomena:N/A
Clouds:N/A
Expected CloudBase > 7,200 ft AGL from Temp-Dew spread
CeilingNone
Temp19°C (ISA +5)
Dew Point01°C (30% RH)
AAT16.1°C
QNH1027 hPa
Density Alt630 ft
Elevation436 ft
Report Wrong Elevation
Raw Report
METAR LFBU 221430Z AUTO 23003KT 170V270 CAVOK 19/01 Q1027 NOSIG=

Extra information for LFBU:More info

Metar Taf Metar & Taf Last 4 Metars F.Rules Stats Wind Profile Meteogram Temp Stats Airport Information Weather charts Add Link Nearby VenuesMetar ALERT Operation Metar Decoded Social comments